Time;durP1;ratioP1;P1;durP2;ratioP2;P2;SDS_P1;SDS_P2;PMS_P1;PMS_P2;Temp;Humidity;BMP_temperature;BMP_pressure;BME280_temperature;BME280_humidity;BME280_pressure;Samples;Min_cycle;Max_cycle;Signal;HPM_P1;HPM_P2
2023/10/14 00:01:15;;;;;;;11.88;6.65;;;;;;;16.04;100.00;98755.53;5095555;28;20024;-86
2023/10/14 00:03:42;;;;;;;10.57;6.00;;;;;;;15.93;100.00;98736.25;5077044;28;20024;-87
2023/10/14 00:06:12;;;;;;;12.90;6.07;;;;;;;16.05;100.00;98749.28;5077325;28;20115;-87
2023/10/14 00:08:48;;;;;;;8.60;6.32;;;;;;;16.05;100.00;98744.88;5076906;28;20364;-87
2023/10/14 00:11:17;;;;;;;9.27;6.07;;;;;;;16.05;100.00;98741.41;5076974;28;20138;-87
2023/10/14 00:13:49;;;;;;;11.68;6.55;;;;;;;15.94;100.00;98723.94;5077001;28;20419;-87
2023/10/14 00:18:55;;;;;;;13.15;6.22;;;;;;;16.10;100.00;98720.88;5095140;28;20119;-86
2023/10/14 00:21:23;;;;;;;10.15;6.07;;;;;;;16.05;100.00;98718.59;5076616;28;20020;-87
2023/10/14 00:23:51;;;;;;;12.32;6.88;;;;;;;16.07;100.00;98721.94;5076889;28;20027;-86
2023/10/14 00:26:17;;;;;;;10.50;5.72;;;;;;;16.10;100.00;98718.25;5076835;28;20027;-87
2023/10/14 00:28:45;;;;;;;9.65;6.07;;;;;;;16.11;100.00;98720.75;5076585;28;20041;-87
2023/10/14 00:31:15;;;;;;;11.13;6.55;;;;;;;16.12;100.00;98713.69;5076689;28;20055;-87
2023/10/14 00:33:41;;;;;;;10.18;5.88;;;;;;;16.10;100.00;98708.56;5076476;28;20069;-87
2023/10/14 00:36:11;;;;;;;10.25;6.15;;;;;;;16.07;100.00;98690.44;5076587;28;20472;-87
2023/10/14 00:38:38;;;;;;;10.05;6.28;;;;;;;16.10;100.00;98703.31;5076454;28;20494;-87
2023/10/14 00:41:03;;;;;;;11.57;5.78;;;;;;;16.00;100.00;98675.31;5093486;28;20506;-87
2023/10/14 00:43:29;;;;;;;12.05;6.25;;;;;;;15.96;100.00;98664.22;5094755;28;20162;-87
2023/10/14 00:45:54;;;;;;;9.52;6.07;;;;;;;16.08;100.00;98671.06;5076611;28;20030;-87
2023/10/14 00:48:27;;;;;;;13.18;6.35;;;;;;;15.96;100.00;98645.84;5093492;28;20027;-87
2023/10/14 00:50:58;;;;;;;9.82;6.65;;;;;;;16.03;100.00;98662.75;5076490;28;20164;-87
2023/10/14 00:53:27;;;;;;;10.15;6.72;;;;;;;16.03;100.00;98651.44;5076208;28;20032;-87
2023/10/14 00:55:54;;;;;;;10.75;6.10;;;;;;;16.02;100.00;98634.00;5050639;28;20087;-87
2023/10/14 00:58:23;;;;;;;7.22;5.32;;;;;;;16.02;100.00;98650.59;5051770;28;20051;-87
2023/10/14 01:00:57;;;;;;;12.40;5.65;;;;;;;16.03;100.00;98633.88;5051610;28;20036;-87
2023/10/14 01:03:27;;;;;;;10.27;6.10;;;;;;;15.91;100.00;98614.72;5034772;28;20025;-87
2023/10/14 01:05:54;;;;;;;11.63;5.93;;;;;;;16.03;100.00;98626.00;5034821;28;20033;-87
2023/10/14 01:08:22;;;;;;;11.82;5.90;;;;;;;16.03;100.00;98625.16;5034964;28;20719;-87
2023/10/14 01:10:49;;;;;;;12.05;5.78;;;;;;;16.02;100.00;98618.25;5051249;28;20072;-87
2023/10/14 01:13:17;;;;;;;10.13;6.55;;;;;;;15.90;100.00;98586.81;5051424;28;20029;-87
2023/10/14 01:15:49;;;;;;;9.98;6.50;;;;;;;16.09;100.00;98614.13;5051124;28;20095;-87
2023/10/14 01:18:14;;;;;;;10.15;6.07;;;;;;;15.99;100.00;98598.31;5034789;28;20033;-87
2023/10/14 01:20:43;;;;;;;10.95;6.38;;;;;;;16.05;100.00;98595.16;5034429;28;20520;-87
2023/10/14 01:23:14;;;;;;;9.43;5.10;;;;;;;16.10;100.00;98600.03;5034626;28;20518;-87
2023/10/14 01:25:47;;;;;;;11.40;6.07;;;;;;;16.10;100.00;98600.88;5051086;28;20028;-87
2023/10/14 01:28:21;;;;;;;13.43;6.57;;;;;;;16.12;100.00;98583.16;5072312;28;20032;-87
2023/10/14 01:31:21;;;;;;;9.98;5.68;;;;;;;16.12;100.00;98593.69;5072012;28;20059;-87
2023/10/14 01:33:47;;;;;;;12.38;6.07;;;;;;;15.96;100.00;98564.44;5072062;28;20032;-87
2023/10/14 01:36:12;;;;;;;12.90;5.80;;;;;;;16.10;100.00;98573.78;5088984;28;20384;-87
2023/10/14 01:38:38;;;;;;;8.77;5.68;;;;;;;15.96;100.00;98552.13;5088886;28;20490;-87
2023/10/14 01:41:04;;;;;;;10.23;5.57;;;;;;;16.04;100.00;98563.78;5072085;28;20506;-87
2023/10/14 01:43:30;;;;;;;9.65;5.70;;;;;;;16.02;100.00;98557.84;5071772;28;20052;-86
2023/10/14 01:48:21;;;;;;;13.35;5.95;;;;;;;16.06;100.00;98567.97;5073324;28;20036;-87
2023/10/14 01:50:55;;;;;;;10.63;6.28;;;;;;;15.95;100.00;98553.09;5071709;28;20028;-87
2023/10/14 01:53:23;;;;;;;13.65;6.50;;;;;;;15.98;100.00;98551.19;5071819;28;20067;-87
2023/10/14 01:55:52;;;;;;;11.07;5.43;;;;;;;15.85;100.00;98536.50;5071486;28;20060;-87
2023/10/14 01:58:22;;;;;;;11.95;5.85;;;;;;;15.96;100.00;98557.38;5071822;28;20032;-87
2023/10/14 02:00:53;;;;;;;13.82;7.03;;;;;;;15.94;100.00;98555.88;5071426;28;20031;-87
2023/10/14 02:03:22;;;;;;;10.80;5.90;;;;;;;15.86;100.00;98546.03;5071746;28;20021;-87
2023/10/14 02:05:51;;;;;;;11.63;5.82;;;;;;;15.86;100.00;98550.44;5071342;28;20267;-87
2023/10/14 02:08:21;;;;;;;11.60;5.97;;;;;;;15.86;100.00;98550.44;5088300;28;20020;-86
2023/10/14 02:10:47;;;;;;;13.48;5.80;;;;;;;15.59;100.00;98504.56;5071112;28;20048;-87
2023/10/14 02:13:23;;;;;;;9.10;5.60;;;;;;;15.74;100.00;98531.31;5072726;28;20036;-86
2023/10/14 02:15:51;;;;;;;11.32;6.03;;;;;;;15.83;100.00;98537.56;5071093;28;20055;-87
2023/10/14 02:18:21;;;;;;;13.18;6.20;;;;;;;15.86;100.00;98534.69;5071443;28;20031;-87
2023/10/14 02:20:56;;;;;;;11.63;5.90;;;;;;;15.84;100.00;98533.97;5087996;28;20077;-87
2023/10/14 02:23:30;;;;;;;9.45;5.57;;;;;;;15.76;100.00;98525.94;5072595;28;20104;-87
2023/10/14 02:25:56;;;;;;;11.60;6.55;;;;;;;15.84;100.00;98541.84;5071357;28;20165;-87
2023/10/14 02:28:40;;;;;;;14.52;6.68;;;;;;;15.61;100.00;98492.13;5071102;28;20501;-87
2023/10/14 02:31:16;;;;;;;10.15;5.65;;;;;;;15.65;100.00;98505.88;5054543;28;20024;-87
2023/10/14 02:33:45;;;;;;;9.00;6.53;;;;;;;15.72;100.00;98520.13;5070873;28;20428;-87
2023/10/14 02:36:14;;;;;;;8.60;6.07;;;;;;;15.74;100.00;98523.44;5054319;28;20032;-86
2023/10/14 02:38:39;;;;;;;12.80;6.22;;;;;;;15.61;100.00;98496.56;5054156;28;20592;-87
2023/10/14 02:41:05;;;;;;;11.88;5.97;;;;;;;15.36;100.00;98467.16;5054300;28;20120;-87
2023/10/14 02:43:30;;;;;;;10.45;6.70;;;;;;;15.50;100.00;98478.28;5072045;28;20028;-87
2023/10/14 02:46:00;;;;;;;11.85;6.05;;;;;;;15.56;100.00;98490.88;5087795;28;20055;-87
2023/10/14 02:48:49;;;;;;;10.38;6.00;;;;;;;15.76;100.00;98525.94;5070974;28;20024;-88
2023/10/14 02:51:16;;;;;;;13.52;5.75;;;;;;;15.49;100.00;98480.06;5072155;28;20094;-87
2023/10/14 02:53:42;;;;;;;12.73;6.50;;;;;;;15.67;100.00;98506.56;5070626;28;20031;-87
2023/10/14 02:56:10;;;;;;;11.93;5.53;;;;;;;15.72;100.00;98514.88;5070726;28;20032;-87
2023/10/14 02:58:35;;;;;;;12.45;5.90;;;;;;;15.63;100.00;98492.84;5071833;28;20103;-87
2023/10/14 03:01:02;;;;;;;11.68;5.85;;;;;;;15.68;100.00;98495.13;5070715;28;20103;-87
2023/10/14 03:03:29;;;;;;;8.43;5.90;;;;;;;15.49;100.00;98466.94;5070649;28;20032;-87
2023/10/14 03:05:55;;;;;;;9.90;5.75;;;;;;;15.60;100.00;98473.91;5053918;28;20047;-87
2023/10/14 03:08:21;;;;;;;12.25;5.97;;;;;;;15.65;100.00;98485.69;5071991;28;20021;-87
2023/10/14 03:10:55;;;;;;;10.63;5.68;;;;;;;15.66;100.00;98489.97;5070282;28;20067;-87
2023/10/14 03:13:22;;;;;;;11.55;6.38;;;;;;;15.65;100.00;98498.81;5070625;28;20031;-88
2023/10/14 03:15:52;;;;;;;10.98;5.82;;;;;;;15.62;100.00;98493.78;5087126;28;20021;-87
2023/10/14 03:18:18;;;;;;;11.23;5.82;;;;;;;15.58;100.00;98494.19;5053769;28;20051;-87
2023/10/14 03:23:25;;;;;;;11.30;6.15;;;;;;;15.54;100.00;98483.13;5071786;28;20024;-87
2023/10/14 03:25:53;;;;;;;9.57;5.80;;;;;;;15.47;100.00;98479.38;5070152;28;20051;-87
2023/10/14 03:28:21;;;;;;;10.77;5.57;;;;;;;15.56;100.00;98504.84;5070462;28;20543;-88
2023/10/14 03:30:55;;;;;;;12.13;5.78;;;;;;;15.51;100.00;98493.06;5070251;28;20017;-87
2023/10/14 03:33:20;;;;;;;11.85;6.28;;;;;;;15.38;100.00;98467.88;5070399;28;20024;-87
2023/10/14 03:36:05;;;;;;;9.43;5.25;;;;;;;15.42;100.00;98477.16;5048789;28;20029;-87
2023/10/14 03:41:03;;;;;;;9.10;5.32;;;;;;;15.43;100.00;98475.34;5049044;28;20128;-87
2023/10/14 03:43:42;;;;;;;10.10;5.93;;;;;;;15.46;100.00;98481.19;5032509;28;20175;-87
2023/10/14 03:46:12;;;;;;;9.45;6.15;;;;;;;15.44;100.00;98475.22;5049118;28;20021;-87
2023/10/14 03:48:47;;;;;;;8.93;5.60;;;;;;;15.19;100.00;98434.50;5032303;28;20115;-87
2023/10/14 03:54:08;;;;;;;13.07;6.25;;;;;;;15.29;100.00;98459.94;4951156;29;20031;-87
2023/10/14 03:56:35;;;;;;;9.75;5.80;;;;;;;15.39;100.00;98482.66;4950688;29;20134;-87
2023/10/14 03:59:02;;;;;;;9.63;5.63;;;;;;;15.37;100.00;98476.69;4934969;29;20039;-87
2023/10/14 04:01:43;;;;;;;8.98;6.03;;;;;;;15.28;100.00;98472.22;4934960;29;20031;-87
2023/10/14 04:04:17;;;;;;;11.00;6.05;;;;;;;15.30;100.00;98486.06;4951062;29;20038;-87
2023/10/14 04:06:51;;;;;;;14.73;6.32;;;;;;;15.14;100.00;98449.78;4934688;29;20489;-87
2023/10/14 04:09:23;;;;;;;11.73;6.90;;;;;;;15.20;100.00;98456.31;4950797;29;20090;-88
2023/10/14 04:11:52;;;;;;;13.57;6.93;;;;;;;15.25;100.00;98469.84;4950631;29;20039;-87
2023/10/14 04:14:22;;;;;;;9.73;5.95;;;;;;;15.20;100.00;98441.38;4987552;28;20383;-87
2023/10/14 04:16:49;;;;;;;9.07;5.22;;;;;;;15.22;100.00;98439.47;4973121;28;20480;-87
2023/10/14 04:22:27;;;;;;;12.48;6.68;;;;;;;15.25;100.00;98437.56;4931800;29;20069;-87
2023/10/14 04:27:45;;;;;;;11.57;6.07;;;;;;;15.35;100.00;98427.94;4931829;29;20027;-88
2023/10/14 04:30:20;;;;;;;10.82;6.45;;;;;;;15.38;100.00;98443.41;4945662;28;20038;-87
2023/10/14 04:35:23;;;;;;;12.52;6.32;;;;;;;15.38;100.00;98427.66;5012667;28;20116;-87
2023/10/14 04:37:52;;;;;;;11.02;7.03;;;;;;;15.29;100.00;98420.59;5012311;28;20034;-87
2023/10/14 04:45:52;;;;;;;12.18;7.78;;;;;;;15.31;100.00;98419.50;5012241;28;20408;-87
2023/10/14 04:48:28;;;;;;;14.05;7.40;;;;;;;15.16;100.00;98390.16;5012467;28;20053;-87
2023/10/14 04:50:56;;;;;;;17.98;10.88;;;;;;;15.35;100.00;98418.28;5012017;28;20034;-87
2023/10/14 04:53:26;;;;;;;20.85;10.70;;;;;;;15.21;100.00;98388.00;5012138;28;20519;-87
2023/10/14 04:55:52;;;;;;;23.77;18.88;;;;;;;15.37;100.00;98408.47;5011912;28;20072;-87
2023/10/14 04:58:24;;;;;;;21.95;16.98;;;;;;;15.38;100.00;98411.91;5011621;28;20399;-87
2023/10/14 05:00:49;;;;;;;;;;;;;;;15.41;100.00;98420.38;5073027;28;20052;-87
2023/10/14 05:03:20;;;;;;;16.90;12.85;;;;;;;15.48;100.00;98429.38;5072906;28;19959;-87
2023/10/14 05:05:51;;;;;;;15.30;9.02;;;;;;;15.53;100.00;98426.34;5072574;28;20051;-87
2023/10/14 05:08:21;;;;;;;12.13;7.38;;;;;;;15.51;100.00;98430.09;5072759;28;20464;-87
2023/10/14 05:10:50;;;;;;;10.15;5.75;;;;;;;15.61;100.00;98423.06;5072254;28;20048;-87
2023/10/14 05:13:16;;;;;;;11.90;6.13;;;;;;;15.65;100.00;98438.44;5072783;28;20029;-87
2023/10/14 05:15:52;;;;;;;9.95;5.60;;;;;;;15.74;100.00;98438.63;5072308;28;20024;-87
2023/10/14 05:18:27;;;;;;;12.50;5.55;;;;;;;15.81;100.00;98445.84;5072640;28;20048;-86
2023/10/14 05:23:19;;;;;;;9.77;6.10;;;;;;;16.00;99.42;98437.16;5074026;28;20028;-87
2023/10/14 05:25:57;;;;;;;11.35;5.20;;;;;;;16.12;97.99;98438.69;5072174;28;20090;-87
2023/10/14 05:28:29;;;;;;;9.02;4.95;;;;;;;16.27;98.01;98448.81;5072335;28;20395;-87
2023/10/14 05:30:57;;;;;;;9.13;5.68;;;;;;;16.33;97.09;98428.06;5072129;28;20380;-87
2023/10/14 05:33:22;;;;;;;7.72;5.53;;;;;;;16.36;96.80;98421.72;5072435;28;20024;-87
2023/10/14 05:35:48;;;;;;;8.30;4.78;;;;;;;16.48;96.25;98436.38;5071910;28;20035;-87
2023/10/14 05:38:14;;;;;;;8.70;4.80;;;;;;;16.64;95.13;98454.22;5072139;28;20115;-87
2023/10/14 05:40:41;;;;;;;7.80;5.97;;;;;;;16.59;95.52;98438.03;5071912;28;20148;-87
2023/10/14 05:43:06;;;;;;;10.60;5.55;;;;;;;16.79;95.61;98449.41;5071606;28;20165;-87
2023/10/14 05:45:34;;;;;;;9.05;4.75;;;;;;;16.81;95.61;98448.31;5072134;28;20117;-87
2023/10/14 05:48:03;;;;;;;10.20;5.47;;;;;;;16.86;95.91;98437.38;5073023;28;20032;-87
2023/10/14 05:50:29;;;;;;;11.80;5.38;;;;;;;17.03;96.31;98443.69;5072104;28;20063;-87
2023/10/14 05:52:54;;;;;;;11.35;5.35;;;;;;;17.04;96.93;98442.72;5084950;28;20055;-87
2023/10/14 05:55:20;;;;;;;11.25;5.15;;;;;;;16.95;96.94;98423.38;5091948;28;20119;-86
2023/10/14 05:57:47;;;;;;;9.32;5.20;;;;;;;17.14;97.73;98449.59;5091774;28;20049;-86
2023/10/14 06:00:25;;;;;;;18.70;6.35;;;;;;;17.12;97.09;98450.75;5091922;28;20494;-87
2023/10/14 06:02:54;;;;;;;9.40;5.50;;;;;;;17.12;96.71;98456.81;5091782;28;20024;-87
2023/10/14 06:05:22;;;;;;;8.43;5.30;;;;;;;16.98;96.77;98435.38;5091904;28;20038;-87
2023/10/14 06:07:47;;;;;;;12.38;6.03;;;;;;;17.04;96.69;98445.34;5091613;28;20028;-87
2023/10/14 06:10:23;;;;;;;10.88;5.70;;;;;;;17.17;96.30;98467.75;5091642;28;20051;-87
2023/10/14 06:12:50;;;;;;;12.23;6.15;;;;;;;17.11;97.04;98459.59;5091693;28;20413;-87
2023/10/14 06:15:17;;;;;;;15.38;5.97;;;;;;;17.17;96.94;98470.38;5091685;28;20402;-88
2023/10/14 06:17:45;;;;;;;8.45;5.40;;;;;;;17.09;97.62;98451.84;5091480;28;20074;-87
2023/10/14 06:20:14;;;;;;;10.00;6.20;;;;;;;17.14;97.72;98465.38;5091655;28;20413;-87
2023/10/14 06:22:43;;;;;;;7.95;5.93;;;;;;;17.11;97.65;98454.34;5091492;28;20471;-87
2023/10/14 06:25:15;;;;;;;11.57;5.70;;;;;;;17.13;97.66;98466.38;5069826;28;20411;-87
2023/10/14 06:27:41;;;;;;;;;;;;;;;17.09;97.89;98469.44;5070474;28;20102;-87
2023/10/14 06:30:18;;;;;;;9.95;5.40;;;;;;;17.14;97.72;98459.31;5070069;28;19908;-86
2023/10/14 06:32:45;;;;;;;8.98;5.13;;;;;;;17.11;98.02;98457.81;5053026;28;20035;-86
2023/10/14 06:35:14;;;;;;;8.70;5.75;;;;;;;17.15;97.83;98459.19;5069826;28;20041;-87
2023/10/14 06:37:42;;;;;;;9.48;5.45;;;;;;;17.02;97.66;98440.22;5053249;28;20515;-86
2023/10/14 06:40:12;;;;;;;9.75;5.82;;;;;;;17.24;97.51;98469.81;5069556;28;20166;-87
2023/10/14 06:42:40;;;;;;;10.93;5.60;;;;;;;17.11;97.01;98457.81;5053106;28;20180;-87
2023/10/14 06:45:06;;;;;;;11.38;6.22;;;;;;;17.10;96.99;98460.56;5052722;28;20037;-86
2023/10/14 06:47:31;;;;;;;8.70;6.20;;;;;;;17.11;97.06;98468.34;5052965;28;20119;-86
2023/10/14 06:49:57;;;;;;;7.70;5.15;;;;;;;17.07;96.82;98452.97;5052602;28;20514;-86
2023/10/14 06:52:22;;;;;;;10.45;5.90;;;;;;;17.06;96.24;98443.41;5052882;28;20036;-86
2023/10/14 06:54:48;;;;;;;9.07;5.70;;;;;;;17.11;96.11;98452.53;5051882;28;20042;-86
2023/10/14 06:57:14;;;;;;;8.85;5.88;;;;;;;17.18;95.89;98460.69;5089873;28;20028;-86
2023/10/14 06:59:39;;;;;;;17.35;5.75;;;;;;;17.22;96.05;98456.78;5092200;28;20143;-86
2023/10/14 07:02:06;;;;;;;7.80;5.30;;;;;;;17.16;96.22;98452.94;5090853;28;20465;-87
2023/10/14 07:04:37;;;;;;;9.15;5.28;;;;;;;17.11;95.08;98442.03;5092316;28;20032;-87
2023/10/14 07:07:07;;;;;;;9.13;5.38;;;;;;;17.09;94.49;98438.69;5073791;28;20020;-87
2023/10/14 07:09:34;;;;;;;10.10;5.72;;;;;;;17.26;94.40;98455.53;5093079;28;20028;-86
2023/10/14 07:11:59;;;;;;;11.73;6.20;;;;;;;17.36;93.99;98459.00;5112316;28;20034;-86
2023/10/14 07:14:24;;;;;;;8.15;5.78;;;;;;;17.46;93.81;98470.31;5094214;28;20114;-86
2023/10/14 07:16:53;;;;;;;9.10;5.03;;;;;;;17.32;92.85;98430.44;5093881;28;20463;-86
2023/10/14 07:19:18;;;;;;;9.90;5.30;;;;;;;17.56;92.84;98458.91;5094104;28;20019;-87
2023/10/14 07:21:44;;;;;;;8.07;5.38;;;;;;;17.57;92.64;98442.13;5112364;28;20470;-87
2023/10/14 07:24:10;;;;;;;8.52;5.22;;;;;;;17.62;91.99;98437.28;5112066;28;20023;-85
2023/10/14 07:26:39;;;;;;;8.40;5.78;;;;;;;17.75;91.54;98445.69;5094050;28;20383;-85
2023/10/14 07:29:07;;;;;;;8.15;5.07;;;;;;;17.95;90.66;98465.69;5112036;28;20076;-86
2023/10/14 07:31:36;;;;;;;9.82;5.40;;;;;;;17.92;89.74;98446.72;5093869;28;20106;-86
2023/10/14 07:34:08;;;;;;;9.73;5.63;;;;;;;18.00;89.71;98456.53;5093738;28;20572;-86
2023/10/14 07:36:35;;;;;;;8.82;5.28;;;;;;;18.09;89.70;98458.25;5112083;28;20080;-86
2023/10/14 07:39:27;;;;;;;9.80;6.07;;;;;;;18.02;89.57;98463.28;5112000;28;20028;-86
2023/10/14 07:41:52;;;;;;;8.82;4.82;;;;;;;18.07;89.17;98466.28;5111824;28;20491;-86
2023/10/14 07:44:22;;;;;;;7.05;4.85;;;;;;;17.99;89.37;98449.56;5112111;28;20582;-86
2023/10/14 07:46:48;;;;;;;6.78;5.38;;;;;;;18.07;89.39;98460.19;5093564;28;20065;-86
2023/10/14 07:49:14;;;;;;;8.48;5.13;;;;;;;18.04;89.50;98442.06;5112157;28;20102;-86
2023/10/14 07:51:39;;;;;;;10.52;5.95;;;;;;;18.05;89.33;98446.34;5112030;28;20139;-86
2023/10/14 07:54:06;;;;;;;5.60;4.80;;;;;;;18.11;89.80;98451.03;5093585;28;20068;-86
2023/10/14 07:56:32;;;;;;;10.52;5.95;;;;;;;18.08;89.20;98433.72;5112026;28;20102;-86
2023/10/14 07:58:57;;;;;;;7.38;5.10;;;;;;;18.23;89.07;98446.38;5093508;28;20026;-86
2023/10/14 08:01:23;;;;;;;9.05;5.47;;;;;;;17.82;88.91;98377.44;5093690;28;20023;-86
2023/10/14 08:03:48;;;;;;;9.60;5.15;;;;;;;18.22;88.24;98434.19;5110906;28;20023;-86
2023/10/14 08:06:17;;;;;;;5.85;4.85;;;;;;;18.62;88.01;98465.34;5105101;28;20016;-86
2023/10/14 08:08:47;;;;;;;10.25;5.45;;;;;;;18.82;87.38;98452.88;5096973;28;20027;-85
2023/10/14 08:11:14;;;;;;;7.75;5.38;;;;;;;18.96;86.60;98444.38;5089995;28;20047;-85
2023/10/14 08:13:43;;;;;;;6.65;5.45;;;;;;;19.12;86.60;98451.59;5099249;28;20110;-85
2023/10/14 08:16:11;;;;;;;10.13;5.38;;;;;;;19.07;86.06;98440.69;5087593;28;20085;-85
2023/10/14 08:18:37;;;;;;;7.88;5.45;;;;;;;19.23;85.92;98459.28;5092046;28;20028;-86
2023/10/14 08:21:03;;;;;;;7.95;5.00;;;;;;;19.14;86.02;98441.72;5104028;28;20564;-86
2023/10/14 08:23:29;;;;;;;9.30;5.10;;;;;;;19.35;86.00;98465.94;5094945;28;20027;-86
2023/10/14 08:25:55;;;;;;;10.13;5.25;;;;;;;19.41;85.50;98456.56;5078331;28;20024;-86
2023/10/14 08:28:21;;;;;;;11.27;5.57;;;;;;;19.38;85.56;98449.81;5086134;28;20020;-87
2023/10/14 08:30:49;;;;;;;9.60;5.72;;;;;;;19.31;85.76;98451.41;5076602;28;20482;-87
2023/10/14 08:33:16;;;;;;;9.57;5.30;;;;;;;19.28;85.83;98449.06;5095034;28;20022;-91
2023/10/14 08:35:45;;;;;;;7.53;4.82;;;;;;;19.20;85.73;98441.09;5084798;28;20028;-87
2023/10/14 08:38:19;;;;;;;8.95;5.85;;;;;;;19.28;86.02;98435.88;5075456;28;20036;-85
2023/10/14 08:40:49;;;;;;;7.03;4.97;;;;;;;19.40;86.16;98434.63;5076228;28;20121;-86
2023/10/14 08:43:26;;;;;;;7.45;5.20;;;;;;;19.47;85.82;98440.09;5076361;28;20024;-87
2023/10/14 08:45:53;;;;;;;7.72;5.20;;;;;;;19.66;86.56;98452.25;5076067;28;20371;-87
2023/10/14 08:48:24;;;;;;;8.93;5.50;;;;;;;19.68;85.94;98437.09;5094432;28;20024;-87
2023/10/14 08:50:52;;;;;;;7.68;5.40;;;;;;;19.74;85.40;98438.28;5094616;28;20030;-87
2023/10/14 08:53:21;;;;;;;7.28;5.50;;;;;;;19.76;85.84;98420.44;5076256;28;20031;-87
2023/10/14 08:55:47;;;;;;;8.52;5.65;;;;;;;19.96;85.37;98444.78;5076528;28;20439;-86
2023/10/14 08:58:16;;;;;;;9.30;5.80;;;;;;;19.85;85.45;98436.19;5094281;28;20034;-86
2023/10/14 09:00:43;;;;;;;11.75;5.97;;;;;;;19.91;85.82;98440.81;5094407;28;20032;-86
2023/10/14 09:03:12;;;;;;;9.20;5.82;;;;;;;20.08;86.40;98457.53;5107348;28;20047;-84
2023/10/14 09:05:41;;;;;;;6.70;5.60;;;;;;;20.19;86.54;98453.78;5096024;28;20045;-86
2023/10/14 09:08:09;;;;;;;11.00;6.10;;;;;;;20.34;86.85;98456.59;5114218;28;20463;-83
2023/10/14 09:10:38;;;;;;;10.18;6.05;;;;;;;20.45;85.00;98461.59;5114424;28;20058;-91
2023/10/14 09:13:08;;;;;;;13.20;6.82;;;;;;;20.59;84.64;98455.69;5097062;28;20045;-91
2023/10/14 09:15:39;;;;;;;9.15;5.90;;;;;;;20.57;84.64;98440.97;5096124;28;20023;-85
2023/10/14 09:18:11;;;;;;;8.02;5.85;;;;;;;20.62;83.79;98450.06;5113443;28;20379;-86
2023/10/14 09:20:38;;;;;;;8.57;6.50;;;;;;;20.74;83.92;98458.50;5094949;28;20027;-89
2023/10/14 09:23:29;;;;;;;7.85;6.03;;;;;;;20.72;85.00;98452.53;5075640;28;20020;-89
2023/10/14 09:25:57;;;;;;;8.73;5.75;;;;;;;20.84;85.89;98464.44;5051019;28;20029;-90
2023/10/14 09:28:25;;;;;;;9.63;6.10;;;;;;;20.92;85.05;98468.91;5034683;28;20033;-90
2023/10/14 09:30:52;;;;;;;8.10;5.88;;;;;;;21.01;85.00;98470.56;5034561;28;20519;-90
2023/10/14 09:33:31;;;;;;;11.48;6.82;;;;;;;21.07;85.56;98461.97;5034786;28;20082;-88
2023/10/14 09:36:18;;;;;;;12.02;6.15;;;;;;;21.15;85.80;98459.31;5034302;28;20033;-86
2023/10/14 09:38:48;;;;;;;7.72;5.78;;;;;;;21.38;85.11;98466.56;5034492;28;20516;-87
2023/10/14 09:41:15;;;;;;;12.65;6.60;;;;;;;21.58;83.95;98475.81;5050729;28;20143;-86
2023/10/14 09:43:46;;;;;;;12.48;5.90;;;;;;;21.63;82.97;98460.22;5034305;28;20020;-86
2023/10/14 09:46:15;;;;;;;8.55;5.85;;;;;;;21.71;82.99;98456.72;5050642;28;20056;-86
2023/10/14 09:48:43;;;;;;;7.78;6.13;;;;;;;21.87;82.19;98469.09;5034089;28;20069;-88
2023/10/14 09:51:12;;;;;;;12.38;6.03;;;;;;;21.84;81.79;98461.47;5033913;28;20137;-86
2023/10/14 09:53:38;;;;;;;9.30;5.65;;;;;;;21.89;80.76;98477.66;5033968;28;20124;-87
2023/10/14 09:56:07;;;;;;;9.18;6.38;;;;;;;21.79;81.05;98480.53;5056672;28;20040;-86
2023/10/14 09:58:37;;;;;;;9.60;5.63;;;;;;;21.69;81.58;98469.28;5075155;28;20035;-87
2023/10/14 10:01:06;;;;;;;11.90;6.30;;;;;;;21.58;82.15;98474.97;5074834;28;20031;-87
2023/10/14 10:04:11;;;;;;;10.45;5.95;;;;;;;21.41;82.63;98468.91;5075031;28;20111;-86
2023/10/14 10:06:54;;;;;;;13.48;6.13;;;;;;;21.25;82.70;98479.47;5010776;28;20507;-86
2023/10/14 10:09:19;;;;;;;7.65;5.70;;;;;;;21.12;83.76;98480.00;4994321;28;20084;-87
2023/10/14 10:11:48;;;;;;;7.05;4.88;;;;;;;20.90;84.55;98469.09;4994370;28;20038;-87
2023/10/14 10:14:19;;;;;;;16.67;6.53;;;;;;;20.75;85.30;98468.09;4994155;28;20033;-87
2023/10/14 10:16:47;;;;;;;9.00;6.63;;;;;;;20.71;85.39;98492.41;5010624;28;20375;-87
2023/10/14 10:19:13;;;;;;;10.73;6.03;;;;;;;20.60;86.02;98498.81;5010488;28;20517;-86
2023/10/14 10:21:43;;;;;;;11.65;5.50;;;;;;;20.42;86.50;98510.34;4994239;28;20073;-86
2023/10/14 10:24:31;;;;;;;9.68;5.63;;;;;;;20.36;86.67;98536.63;4993945;28;20041;-86
2023/10/14 10:27:03;;;;;;;13.77;6.13;;;;;;;20.08;87.23;98520.16;4932828;29;20046;-86
2023/10/14 10:29:33;;;;;;;8.55;5.55;;;;;;;20.14;87.67;98548.56;4932860;29;20073;-86
2023/10/14 10:32:16;;;;;;;8.52;5.90;;;;;;;19.88;87.72;98530.13;4916772;29;20499;-86
2023/10/14 10:35:06;;;;;;;8.45;5.38;;;;;;;19.96;87.91;98561.06;4917148;29;20027;-86
2023/10/14 10:37:44;;;;;;;12.23;6.45;;;;;;;19.86;87.89;98569.13;4932708;29;20036;-86
2023/10/14 10:40:12;;;;;;;11.98;6.75;;;;;;;19.75;88.22;98556.97;4938211;29;20066;-86
2023/10/14 10:42:41;;;;;;;11.75;7.32;;;;;;;19.59;89.38;98559.50;4947841;28;20072;-86
2023/10/14 10:45:32;;;;;;;12.63;5.78;;;;;;;19.56;89.60;98573.84;4993381;28;20563;-86
2023/10/14 10:48:05;;;;;;;10.43;6.85;;;;;;;19.42;90.17;98571.75;4993409;28;20034;-88
2023/10/14 10:50:39;;;;;;;9.93;6.65;;;;;;;19.44;91.11;98591.75;4993686;28;20033;-87
2023/10/14 10:53:07;;;;;;;13.73;6.25;;;;;;;19.37;91.93;98609.19;4993525;28;20030;-90
2023/10/14 11:03:49;;;;;;;12.23;5.80;;;;;;;19.09;94.91;98631.41;4977678;28;20089;-91
2023/10/14 11:11:09;;;;;;;8.20;4.13;;;;;;;18.78;99.23;98642.28;4868476;29;20060;-93
2023/10/14 11:13:36;;;;;;;;;;;;;;;18.70;100.00;98647.44;4839358;29;20045;-90
2023/10/14 11:16:11;;;;;;;5.13;3.60;;;;;;;18.60;100.00;98650.13;4820382;29;20009;-86
2023/10/14 11:18:48;;;;;;;3.97;3.40;;;;;;;18.56;100.00;98654.03;4820717;29;20446;-88
2023/10/14 11:21:14;;;;;;;6.80;4.13;;;;;;;18.50;100.00;98657.25;4804997;29;20090;-87
2023/10/14 11:23:42;;;;;;;4.45;3.55;;;;;;;18.53;100.00;98672.78;4820459;29;20045;-88
2023/10/14 11:26:11;;;;;;;4.68;3.40;;;;;;;18.34;100.00;98657.06;4820495;29;20078;-86
2023/10/14 11:28:38;;;;;;;3.85;3.03;;;;;;;18.30;100.00;98679.41;4820662;29;20046;-87
2023/10/14 11:31:07;;;;;;;4.65;3.08;;;;;;;18.24;100.00;98691.31;4820055;29;20042;-86
2023/10/14 11:33:35;;;;;;;4.38;2.70;;;;;;;18.00;100.00;98681.28;4847053;29;20189;-87
2023/10/14 11:36:02;;;;;;;3.47;2.20;;;;;;;17.85;100.00;98686.16;4875211;29;20045;-86
2023/10/14 11:38:29;;;;;;;2.60;2.40;;;;;;;17.90;100.00;98697.09;4876213;29;20076;-86
2023/10/14 11:40:55;;;;;;;3.33;2.50;;;;;;;17.80;100.00;98704.19;4896826;29;20173;-86
2023/10/14 11:43:21;;;;;;;2.50;2.30;;;;;;;17.60;100.00;98686.69;4897776;29;20131;-86
2023/10/14 11:45:46;;;;;;;2.75;2.55;;;;;;;17.68;100.00;98714.00;4898043;29;20035;-86
2023/10/14 11:48:30;;;;;;;3.25;2.95;;;;;;;17.49;100.00;98689.47;4919310;29;20035;-86
2023/10/14 11:51:00;;;;;;;4.00;2.60;;;;;;;17.41;100.00;98688.38;4919934;29;20037;-87
2023/10/14 11:53:28;;;;;;;3.20;2.90;;;;;;;17.59;100.00;98725.38;4919895;29;20043;-87
2023/10/14 11:55:59;;;;;;;3.53;3.00;;;;;;;17.59;100.00;98728.00;4935969;28;20486;-87
2023/10/14 11:58:32;;;;;;;3.15;2.85;;;;;;;17.54;100.00;98738.13;4991105;28;20018;-87
2023/10/14 12:01:00;;;;;;;4.25;3.35;;;;;;;17.54;100.00;98751.28;4987891;28;20034;-87
2023/10/14 12:03:30;;;;;;;3.40;3.10;;;;;;;17.33;100.00;98747.94;5058145;28;20079;-89
2023/10/14 12:05:57;;;;;;;3.47;3.15;;;;;;;17.34;100.00;98763.59;5045363;28;20384;-89
2023/10/14 12:08:33;;;;;;;3.80;2.85;;;;;;;16.90;100.00;98715.72;5047677;28;20021;-90
2023/10/14 12:11:03;;;;;;;1.77;1.40;;;;;;;16.65;100.00;98708.28;5057573;28;20071;-88
2023/10/14 12:13:30;;;;;;;2.63;1.42;;;;;;;16.98;100.00;98775.56;5071312;28;20597;-89
2023/10/14 12:15:57;;;;;;;1.60;1.50;;;;;;;16.71;100.00;98740.13;5086650;28;20386;-90
2023/10/14 12:18:26;;;;;;;1.80;1.70;;;;;;;16.28;100.00;98679.91;5085492;28;20024;-89
2023/10/14 12:20:54;;;;;;;3.83;3.38;;;;;;;16.61;100.00;98736.63;5086767;28;20046;-91